sensor_id;sensor_type;location;lat;lon;timestamp;P1;durP1;ratioP1;P2;durP2;ratioP2
4686;SDS011;2357;47.316;-1.348;2022-10-30T00:01:59;5.20;;;1.87;;
4686;SDS011;2357;47.316;-1.348;2022-10-30T00:04:24;7.23;;;1.60;;
4686;SDS011;2357;47.316;-1.348;2022-10-30T00:06:50;8.73;;;1.97;;
4686;SDS011;2357;47.316;-1.348;2022-10-30T00:09:16;4.17;;;1.40;;
4686;SDS011;2357;47.316;-1.348;2022-10-30T00:11:42;8.73;;;1.80;;
4686;SDS011;2357;47.316;-1.348;2022-10-30T00:14:07;4.07;;;1.43;;
4686;SDS011;2357;47.316;-1.348;2022-10-30T00:16:33;4.40;;;1.20;;
4686;SDS011;2357;47.316;-1.348;2022-10-30T00:18:59;6.63;;;1.57;;
4686;SDS011;2357;47.316;-1.348;2022-10-30T00:21:24;2.40;;;1.17;;
4686;SDS011;2357;47.316;-1.348;2022-10-30T00:23:51;10.10;;;2.20;;
4686;SDS011;2357;47.316;-1.348;2022-10-30T00:26:18;6.00;;;2.00;;
4686;SDS011;2357;47.316;-1.348;2022-10-30T00:28:48;8.53;;;1.73;;
4686;SDS011;2357;47.316;-1.348;2022-10-30T00:31:14;9.60;;;1.87;;
4686;SDS011;2357;47.316;-1.348;2022-10-30T00:33:40;6.10;;;1.80;;
4686;SDS011;2357;47.316;-1.348;2022-10-30T00:36:06;8.50;;;2.27;;
4686;SDS011;2357;47.316;-1.348;2022-10-30T00:38:31;7.60;;;2.30;;
4686;SDS011;2357;47.316;-1.348;2022-10-30T00:40:57;7.10;;;2.77;;
4686;SDS011;2357;47.316;-1.348;2022-10-30T00:45:51;9.97;;;2.97;;
4686;SDS011;2357;47.316;-1.348;2022-10-30T00:48:23;6.73;;;3.50;;
4686;SDS011;2357;47.316;-1.348;2022-10-30T00:50:50;12.23;;;4.90;;
4686;SDS011;2357;47.316;-1.348;2022-10-30T00:53:17;18.10;;;5.50;;
4686;SDS011;2357;47.316;-1.348;2022-10-30T00:58:16;8.60;;;1.70;;
4686;SDS011;2357;47.316;-1.348;2022-10-30T01:00:46;14.47;;;3.30;;
4686;SDS011;2357;47.316;-1.348;2022-10-30T01:03:15;10.83;;;2.00;;
4686;SDS011;2357;47.316;-1.348;2022-10-30T01:05:43;1.93;;;1.17;;
4686;SDS011;2357;47.316;-1.348;2022-10-30T01:08:09;5.03;;;1.20;;
4686;SDS011;2357;47.316;-1.348;2022-10-30T01:10:35;4.90;;;1.70;;
4686;SDS011;2357;47.316;-1.348;2022-10-30T01:13:01;5.10;;;1.67;;
4686;SDS011;2357;47.316;-1.348;2022-10-30T01:15:32;5.57;;;1.83;;
4686;SDS011;2357;47.316;-1.348;2022-10-30T01:20:50;8.53;;;1.47;;
4686;SDS011;2357;47.316;-1.348;2022-10-30T01:28:59;2.80;;;1.73;;
4686;SDS011;2357;47.316;-1.348;2022-10-30T01:37:05;3.00;;;1.80;;
4686;SDS011;2357;47.316;-1.348;2022-10-30T01:39:38;12.00;;;2.03;;
4686;SDS011;2357;47.316;-1.348;2022-10-30T01:42:49;5.30;;;1.90;;
4686;SDS011;2357;47.316;-1.348;2022-10-30T01:45:10;6.27;;;2.07;;
4686;SDS011;2357;47.316;-1.348;2022-10-30T01:53:15;11.90;;;1.93;;
4686;SDS011;2357;47.316;-1.348;2022-10-30T01:56:05;1.73;;;1.40;;
4686;SDS011;2357;47.316;-1.348;2022-10-30T01:58:56;3.93;;;1.50;;
4686;SDS011;2357;47.316;-1.348;2022-10-30T02:01:31;4.63;;;2.27;;
4686;SDS011;2357;47.316;-1.348;2022-10-30T02:03:59;3.40;;;1.77;;
4686;SDS011;2357;47.316;-1.348;2022-10-30T02:06:26;7.73;;;1.60;;
4686;SDS011;2357;47.316;-1.348;2022-10-30T02:08:55;2.20;;;1.40;;
4686;SDS011;2357;47.316;-1.348;2022-10-30T02:11:21;4.63;;;1.87;;
4686;SDS011;2357;47.316;-1.348;2022-10-30T02:13:49;2.13;;;1.87;;
4686;SDS011;2357;47.316;-1.348;2022-10-30T02:16:16;5.00;;;1.70;;
4686;SDS011;2357;47.316;-1.348;2022-10-30T02:18:42;2.57;;;2.30;;
4686;SDS011;2357;47.316;-1.348;2022-10-30T02:21:08;3.03;;;1.43;;
4686;SDS011;2357;47.316;-1.348;2022-10-30T02:23:33;3.67;;;1.47;;
4686;SDS011;2357;47.316;-1.348;2022-10-30T02:25:59;8.10;;;1.53;;
4686;SDS011;2357;47.316;-1.348;2022-10-30T02:28:25;28.30;;;1.90;;
4686;SDS011;2357;47.316;-1.348;2022-10-30T02:30:50;4.37;;;1.40;;
4686;SDS011;2357;47.316;-1.348;2022-10-30T02:33:16;3.83;;;1.63;;
4686;SDS011;2357;47.316;-1.348;2022-10-30T02:35:42;4.53;;;1.20;;
4686;SDS011;2357;47.316;-1.348;2022-10-30T02:38:08;2.90;;;1.27;;
4686;SDS011;2357;47.316;-1.348;2022-10-30T02:40:33;6.17;;;1.70;;
4686;SDS011;2357;47.316;-1.348;2022-10-30T02:42:59;9.80;;;2.50;;
4686;SDS011;2357;47.316;-1.348;2022-10-30T02:45:24;7.60;;;1.40;;
4686;SDS011;2357;47.316;-1.348;2022-10-30T02:47:50;9.33;;;1.80;;
4686;SDS011;2357;47.316;-1.348;2022-10-30T02:50:16;3.23;;;1.30;;
4686;SDS011;2357;47.316;-1.348;2022-10-30T02:52:41;5.50;;;1.80;;
4686;SDS011;2357;47.316;-1.348;2022-10-30T02:55:07;8.90;;;1.50;;
4686;SDS011;2357;47.316;-1.348;2022-10-30T02:57:33;5.13;;;1.50;;
4686;SDS011;2357;47.316;-1.348;2022-10-30T02:59:58;13.43;;;2.53;;
4686;SDS011;2357;47.316;-1.348;2022-10-30T03:02:24;8.20;;;2.10;;
4686;SDS011;2357;47.316;-1.348;2022-10-30T03:04:49;8.30;;;1.97;;
4686;SDS011;2357;47.316;-1.348;2022-10-30T03:07:15;6.30;;;1.70;;
4686;SDS011;2357;47.316;-1.348;2022-10-30T03:09:41;4.87;;;1.53;;
4686;SDS011;2357;47.316;-1.348;2022-10-30T03:12:06;4.57;;;2.00;;
4686;SDS011;2357;47.316;-1.348;2022-10-30T03:14:32;3.47;;;1.30;;
4686;SDS011;2357;47.316;-1.348;2022-10-30T03:16:58;8.20;;;2.30;;
4686;SDS011;2357;47.316;-1.348;2022-10-30T03:19:23;7.20;;;2.60;;
4686;SDS011;2357;47.316;-1.348;2022-10-30T03:21:49;8.30;;;1.70;;
4686;SDS011;2357;47.316;-1.348;2022-10-30T03:24:14;18.73;;;2.77;;
4686;SDS011;2357;47.316;-1.348;2022-10-30T03:26:40;7.03;;;2.03;;
4686;SDS011;2357;47.316;-1.348;2022-10-30T03:29:06;4.30;;;2.60;;
4686;SDS011;2357;47.316;-1.348;2022-10-30T03:31:31;6.10;;;2.77;;
4686;SDS011;2357;47.316;-1.348;2022-10-30T03:33:57;6.50;;;1.60;;
4686;SDS011;2357;47.316;-1.348;2022-10-30T03:36:23;3.97;;;1.97;;
4686;SDS011;2357;47.316;-1.348;2022-10-30T03:38:50;8.60;;;1.50;;
4686;SDS011;2357;47.316;-1.348;2022-10-30T03:41:15;3.63;;;1.70;;
4686;SDS011;2357;47.316;-1.348;2022-10-30T03:43:41;5.17;;;1.73;;
4686;SDS011;2357;47.316;-1.348;2022-10-30T03:46:07;5.03;;;2.07;;
4686;SDS011;2357;47.316;-1.348;2022-10-30T03:48:33;3.50;;;2.03;;
4686;SDS011;2357;47.316;-1.348;2022-10-30T03:50:59;5.13;;;2.17;;
4686;SDS011;2357;47.316;-1.348;2022-10-30T03:53:25;5.40;;;2.80;;
4686;SDS011;2357;47.316;-1.348;2022-10-30T03:55:56;6.70;;;1.50;;
4686;SDS011;2357;47.316;-1.348;2022-10-30T03:58:23;6.00;;;2.17;;
4686;SDS011;2357;47.316;-1.348;2022-10-30T04:00:49;4.10;;;1.63;;
4686;SDS011;2357;47.316;-1.348;2022-10-30T04:03:15;3.30;;;1.97;;
4686;SDS011;2357;47.316;-1.348;2022-10-30T04:05:40;7.50;;;1.97;;
4686;SDS011;2357;47.316;-1.348;2022-10-30T04:08:08;7.73;;;2.07;;
4686;SDS011;2357;47.316;-1.348;2022-10-30T04:10:40;6.50;;;2.00;;
4686;SDS011;2357;47.316;-1.348;2022-10-30T04:13:10;5.90;;;2.03;;
4686;SDS011;2357;47.316;-1.348;2022-10-30T04:15:37;5.40;;;1.77;;
4686;SDS011;2357;47.316;-1.348;2022-10-30T04:18:03;4.73;;;1.80;;
4686;SDS011;2357;47.316;-1.348;2022-10-30T04:20:28;3.37;;;1.63;;
4686;SDS011;2357;47.316;-1.348;2022-10-30T04:22:58;4.97;;;1.80;;
4686;SDS011;2357;47.316;-1.348;2022-10-30T04:25:26;3.43;;;1.80;;
4686;SDS011;2357;47.316;-1.348;2022-10-30T04:27:53;11.13;;;2.10;;
4686;SDS011;2357;47.316;-1.348;2022-10-30T04:30:19;10.73;;;2.60;;
4686;SDS011;2357;47.316;-1.348;2022-10-30T04:32:49;4.00;;;1.53;;
4686;SDS011;2357;47.316;-1.348;2022-10-30T04:35:17;7.17;;;1.60;;
4686;SDS011;2357;47.316;-1.348;2022-10-30T04:37:57;7.40;;;1.60;;
4686;SDS011;2357;47.316;-1.348;2022-10-30T04:40:26;5.03;;;1.90;;
4686;SDS011;2357;47.316;-1.348;2022-10-30T04:42:54;6.20;;;2.30;;
4686;SDS011;2357;47.316;-1.348;2022-10-30T04:45:20;6.90;;;1.60;;
4686;SDS011;2357;47.316;-1.348;2022-10-30T04:47:46;7.97;;;1.93;;
4686;SDS011;2357;47.316;-1.348;2022-10-30T04:50:12;6.80;;;1.37;;
4686;SDS011;2357;47.316;-1.348;2022-10-30T04:52:38;5.13;;;1.87;;
4686;SDS011;2357;47.316;-1.348;2022-10-30T04:55:05;4.53;;;1.03;;
4686;SDS011;2357;47.316;-1.348;2022-10-30T04:57:32;7.47;;;1.37;;
4686;SDS011;2357;47.316;-1.348;2022-10-30T04:59:58;7.13;;;1.60;;
4686;SDS011;2357;47.316;-1.348;2022-10-30T05:02:24;2.70;;;1.20;;
4686;SDS011;2357;47.316;-1.348;2022-10-30T05:04:49;12.00;;;2.20;;
4686;SDS011;2357;47.316;-1.348;2022-10-30T05:07:15;4.10;;;1.10;;
4686;SDS011;2357;47.316;-1.348;2022-10-30T05:09:42;3.90;;;1.37;;
4686;SDS011;2357;47.316;-1.348;2022-10-30T05:12:08;4.33;;;1.03;;
4686;SDS011;2357;47.316;-1.348;2022-10-30T05:14:34;5.20;;;1.00;;
4686;SDS011;2357;47.316;-1.348;2022-10-30T05:17:00;5.03;;;1.47;;
4686;SDS011;2357;47.316;-1.348;2022-10-30T05:19:26;6.60;;;1.93;;
4686;SDS011;2357;47.316;-1.348;2022-10-30T05:21:52;8.17;;;1.40;;
4686;SDS011;2357;47.316;-1.348;2022-10-30T05:24:18;6.63;;;1.03;;
4686;SDS011;2357;47.316;-1.348;2022-10-30T05:26:44;5.00;;;1.40;;
4686;SDS011;2357;47.316;-1.348;2022-10-30T05:29:10;5.87;;;1.20;;
4686;SDS011;2357;47.316;-1.348;2022-10-30T05:31:36;9.77;;;0.90;;
4686;SDS011;2357;47.316;-1.348;2022-10-30T05:34:01;7.17;;;1.50;;
4686;SDS011;2357;47.316;-1.348;2022-10-30T05:36:27;7.33;;;1.00;;
4686;SDS011;2357;47.316;-1.348;2022-10-30T05:38:52;3.50;;;0.80;;
4686;SDS011;2357;47.316;-1.348;2022-10-30T05:41:19;13.00;;;1.30;;
4686;SDS011;2357;47.316;-1.348;2022-10-30T05:43:44;16.90;;;1.20;;
4686;SDS011;2357;47.316;-1.348;2022-10-30T05:46:10;5.57;;;1.10;;
4686;SDS011;2357;47.316;-1.348;2022-10-30T05:48:35;5.63;;;0.90;;
4686;SDS011;2357;47.316;-1.348;2022-10-30T05:51:01;4.10;;;0.83;;
4686;SDS011;2357;47.316;-1.348;2022-10-30T05:53:28;5.13;;;1.20;;
4686;SDS011;2357;47.316;-1.348;2022-10-30T05:55:57;5.60;;;0.80;;
4686;SDS011;2357;47.316;-1.348;2022-10-30T05:58:23;4.43;;;0.93;;
4686;SDS011;2357;47.316;-1.348;2022-10-30T06:00:49;2.37;;;1.23;;
4686;SDS011;2357;47.316;-1.348;2022-10-30T06:03:16;7.93;;;1.23;;
4686;SDS011;2357;47.316;-1.348;2022-10-30T06:05:43;3.23;;;1.30;;
4686;SDS011;2357;47.316;-1.348;2022-10-30T06:08:10;8.00;;;0.97;;
4686;SDS011;2357;47.316;-1.348;2022-10-30T06:10:36;1.50;;;0.90;;
4686;SDS011;2357;47.316;-1.348;2022-10-30T06:13:02;7.00;;;0.83;;
4686;SDS011;2357;47.316;-1.348;2022-10-30T06:15:30;0.90;;;0.80;;
4686;SDS011;2357;47.316;-1.348;2022-10-30T06:17:56;2.93;;;0.80;;
4686;SDS011;2357;47.316;-1.348;2022-10-30T06:20:23;2.30;;;0.80;;
4686;SDS011;2357;47.316;-1.348;2022-10-30T06:25:27;6.53;;;1.43;;
4686;SDS011;2357;47.316;-1.348;2022-10-30T06:27:54;3.87;;;0.90;;
4686;SDS011;2357;47.316;-1.348;2022-10-30T06:30:19;7.10;;;1.17;;
4686;SDS011;2357;47.316;-1.348;2022-10-30T06:32:45;6.43;;;1.00;;
4686;SDS011;2357;47.316;-1.348;2022-10-30T06:35:11;8.27;;;0.97;;
4686;SDS011;2357;47.316;-1.348;2022-10-30T06:37:37;5.43;;;0.60;;
4686;SDS011;2357;47.316;-1.348;2022-10-30T06:40:06;2.97;;;0.60;;
4686;SDS011;2357;47.316;-1.348;2022-10-30T06:42:33;10.27;;;0.90;;
4686;SDS011;2357;47.316;-1.348;2022-10-30T06:45:06;4.13;;;1.20;;
4686;SDS011;2357;47.316;-1.348;2022-10-30T06:47:35;15.30;;;0.97;;
4686;SDS011;2357;47.316;-1.348;2022-10-30T06:50:01;7.73;;;0.80;;
4686;SDS011;2357;47.316;-1.348;2022-10-30T06:52:27;5.40;;;0.90;;
4686;SDS011;2357;47.316;-1.348;2022-10-30T06:54:53;2.17;;;0.83;;
4686;SDS011;2357;47.316;-1.348;2022-10-30T06:57:18;7.60;;;1.10;;
4686;SDS011;2357;47.316;-1.348;2022-10-30T06:59:44;3.00;;;1.07;;
4686;SDS011;2357;47.316;-1.348;2022-10-30T07:02:10;2.63;;;0.87;;
4686;SDS011;2357;47.316;-1.348;2022-10-30T07:04:35;3.37;;;0.90;;
4686;SDS011;2357;47.316;-1.348;2022-10-30T07:07:02;5.37;;;0.93;;
4686;SDS011;2357;47.316;-1.348;2022-10-30T07:09:28;6.33;;;1.00;;
4686;SDS011;2357;47.316;-1.348;2022-10-30T07:11:54;11.50;;;1.30;;
4686;SDS011;2357;47.316;-1.348;2022-10-30T07:14:19;13.90;;;0.90;;
4686;SDS011;2357;47.316;-1.348;2022-10-30T07:16:46;5.50;;;0.97;;
4686;SDS011;2357;47.316;-1.348;2022-10-30T07:19:12;4.10;;;1.47;;
4686;SDS011;2357;47.316;-1.348;2022-10-30T07:21:37;5.00;;;1.00;;
4686;SDS011;2357;47.316;-1.348;2022-10-30T07:24:03;2.63;;;0.70;;
4686;SDS011;2357;47.316;-1.348;2022-10-30T07:26:29;5.10;;;0.70;;
4686;SDS011;2357;47.316;-1.348;2022-10-30T07:28:55;12.73;;;0.90;;
4686;SDS011;2357;47.316;-1.348;2022-10-30T07:31:20;9.03;;;0.83;;
4686;SDS011;2357;47.316;-1.348;2022-10-30T07:33:46;11.67;;;1.53;;
4686;SDS011;2357;47.316;-1.348;2022-10-30T07:36:11;1.60;;;0.73;;
4686;SDS011;2357;47.316;-1.348;2022-10-30T07:38:39;2.37;;;1.10;;
4686;SDS011;2357;47.316;-1.348;2022-10-30T07:41:04;9.60;;;1.43;;
4686;SDS011;2357;47.316;-1.348;2022-10-30T07:43:30;2.53;;;1.00;;
4686;SDS011;2357;47.316;-1.348;2022-10-30T07:45:56;4.53;;;1.23;;
4686;SDS011;2357;47.316;-1.348;2022-10-30T07:48:21;4.67;;;1.33;;
4686;SDS011;2357;47.316;-1.348;2022-10-30T07:50:47;2.40;;;0.90;;
4686;SDS011;2357;47.316;-1.348;2022-10-30T07:53:12;2.03;;;0.83;;
4686;SDS011;2357;47.316;-1.348;2022-10-30T07:55:38;4.23;;;0.80;;
4686;SDS011;2357;47.316;-1.348;2022-10-30T07:58:08;3.00;;;1.10;;
4686;SDS011;2357;47.316;-1.348;2022-10-30T08:00:34;3.90;;;0.93;;
4686;SDS011;2357;47.316;-1.348;2022-10-30T08:03:00;8.20;;;1.60;;
4686;SDS011;2357;47.316;-1.348;2022-10-30T08:05:25;5.23;;;1.27;;
4686;SDS011;2357;47.316;-1.348;2022-10-30T08:07:51;7.40;;;1.53;;
4686;SDS011;2357;47.316;-1.348;2022-10-30T08:10:16;5.23;;;2.13;;
4686;SDS011;2357;47.316;-1.348;2022-10-30T08:12:42;9.37;;;1.40;;
4686;SDS011;2357;47.316;-1.348;2022-10-30T08:15:09;1.80;;;1.10;;
4686;SDS011;2357;47.316;-1.348;2022-10-30T08:17:42;1.43;;;1.27;;
4686;SDS011;2357;47.316;-1.348;2022-10-30T08:20:09;6.33;;;0.80;;
4686;SDS011;2357;47.316;-1.348;2022-10-30T08:22:45;11.80;;;1.20;;
4686;SDS011;2357;47.316;-1.348;2022-10-30T08:25:23;5.10;;;1.07;;
4686;SDS011;2357;47.316;-1.348;2022-10-30T08:27:52;2.20;;;1.10;;
4686;SDS011;2357;47.316;-1.348;2022-10-30T08:30:29;5.13;;;0.80;;
4686;SDS011;2357;47.316;-1.348;2022-10-30T08:32:58;8.03;;;1.63;;
4686;SDS011;2357;47.316;-1.348;2022-10-30T08:35:25;2.00;;;0.90;;
4686;SDS011;2357;47.316;-1.348;2022-10-30T08:37:55;6.13;;;0.97;;
4686;SDS011;2357;47.316;-1.348;2022-10-30T08:40:21;4.23;;;0.67;;
4686;SDS011;2357;47.316;-1.348;2022-10-30T08:42:50;3.97;;;1.13;;
4686;SDS011;2357;47.316;-1.348;2022-10-30T08:45:17;5.27;;;1.00;;
4686;SDS011;2357;47.316;-1.348;2022-10-30T08:47:43;1.40;;;0.80;;
4686;SDS011;2357;47.316;-1.348;2022-10-30T08:50:09;6.27;;;0.97;;
4686;SDS011;2357;47.316;-1.348;2022-10-30T08:52:34;2.60;;;1.03;;
4686;SDS011;2357;47.316;-1.348;2022-10-30T08:55:00;1.23;;;0.83;;
4686;SDS011;2357;47.316;-1.348;2022-10-30T08:57:26;3.67;;;0.80;;
4686;SDS011;2357;47.316;-1.348;2022-10-30T08:59:52;2.70;;;0.90;;
4686;SDS011;2357;47.316;-1.348;2022-10-30T09:02:17;2.93;;;1.17;;
4686;SDS011;2357;47.316;-1.348;2022-10-30T09:04:43;2.30;;;0.90;;
4686;SDS011;2357;47.316;-1.348;2022-10-30T09:07:08;8.00;;;0.93;;
4686;SDS011;2357;47.316;-1.348;2022-10-30T09:09:34;3.40;;;0.70;;
4686;SDS011;2357;47.316;-1.348;2022-10-30T09:12:00;1.40;;;0.63;;
4686;SDS011;2357;47.316;-1.348;2022-10-30T09:14:25;2.10;;;0.93;;
4686;SDS011;2357;47.316;-1.348;2022-10-30T09:16:52;4.13;;;1.43;;
4686;SDS011;2357;47.316;-1.348;2022-10-30T09:19:18;0.60;;;0.60;;
4686;SDS011;2357;47.316;-1.348;2022-10-30T09:21:44;2.47;;;0.70;;
4686;SDS011;2357;47.316;-1.348;2022-10-30T09:24:10;1.40;;;0.80;;
4686;SDS011;2357;47.316;-1.348;2022-10-30T09:26:35;3.20;;;0.80;;
4686;SDS011;2357;47.316;-1.348;2022-10-30T09:29:01;0.77;;;0.50;;
4686;SDS011;2357;47.316;-1.348;2022-10-30T09:31:26;3.17;;;0.70;;
4686;SDS011;2357;47.316;-1.348;2022-10-30T09:33:52;4.23;;;0.70;;
4686;SDS011;2357;47.316;-1.348;2022-10-30T09:36:17;6.20;;;0.93;;
4686;SDS011;2357;47.316;-1.348;2022-10-30T09:38:43;3.40;;;1.17;;
4686;SDS011;2357;47.316;-1.348;2022-10-30T09:44:37;1.60;;;0.60;;
4686;SDS011;2357;47.316;-1.348;2022-10-30T09:47:07;10.33;;;0.93;;
4686;SDS011;2357;47.316;-1.348;2022-10-30T10:01:38;0.70;;;0.70;;
4686;SDS011;2357;47.316;-1.348;2022-10-30T10:07:01;1.80;;;0.60;;
4686;SDS011;2357;47.316;-1.348;2022-10-30T10:09:34;4.23;;;0.70;;
4686;SDS011;2357;47.316;-1.348;2022-10-30T10:14:53;0.90;;;0.70;;
4686;SDS011;2357;47.316;-1.348;2022-10-30T10:17:27;2.83;;;0.50;;
4686;SDS011;2357;47.316;-1.348;2022-10-30T10:19:59;1.10;;;0.53;;
4686;SDS011;2357;47.316;-1.348;2022-10-30T10:22:35;0.60;;;0.50;;
4686;SDS011;2357;47.316;-1.348;2022-10-30T10:25:02;1.70;;;0.60;;
4686;SDS011;2357;47.316;-1.348;2022-10-30T10:27:40;1.27;;;0.73;;
4686;SDS011;2357;47.316;-1.348;2022-10-30T10:31:14;2.60;;;0.60;;
4686;SDS011;2357;47.316;-1.348;2022-10-30T10:44:37;2.60;;;0.70;;
4686;SDS011;2357;47.316;-1.348;2022-10-30T10:49:56;3.03;;;1.17;;
4686;SDS011;2357;47.316;-1.348;2022-10-30T10:52:53;2.00;;;0.60;;
4686;SDS011;2357;47.316;-1.348;2022-10-30T10:55:26;4.60;;;0.57;;
4686;SDS011;2357;47.316;-1.348;2022-10-30T10:57:57;0.50;;;0.50;;
4686;SDS011;2357;47.316;-1.348;2022-10-30T11:00:31;1.80;;;0.60;;
4686;SDS011;2357;47.316;-1.348;2022-10-30T11:03:10;7.20;;;0.47;;
4686;SDS011;2357;47.316;-1.348;2022-10-30T11:05:47;1.33;;;0.70;;
4686;SDS011;2357;47.316;-1.348;2022-10-30T11:08:22;3.13;;;1.10;;
4686;SDS011;2357;47.316;-1.348;2022-10-30T11:10:55;0.50;;;0.50;;
4686;SDS011;2357;47.316;-1.348;2022-10-30T11:13:26;0.87;;;0.67;;
4686;SDS011;2357;47.316;-1.348;2022-10-30T11:18:44;7.97;;;1.50;;
4686;SDS011;2357;47.316;-1.348;2022-10-30T11:21:14;0.90;;;0.70;;
4686;SDS011;2357;47.316;-1.348;2022-10-30T11:23:44;3.00;;;0.77;;
4686;SDS011;2357;47.316;-1.348;2022-10-30T11:31:24;2.27;;;0.50;;
4686;SDS011;2357;47.316;-1.348;2022-10-30T11:34:11;4.93;;;1.10;;
4686;SDS011;2357;47.316;-1.348;2022-10-30T11:36:48;0.60;;;0.60;;
4686;SDS011;2357;47.316;-1.348;2022-10-30T11:39:18;5.30;;;0.80;;
4686;SDS011;2357;47.316;-1.348;2022-10-30T11:44:31;5.10;;;0.53;;
4686;SDS011;2357;47.316;-1.348;2022-10-30T11:46:58;3.00;;;0.90;;
4686;SDS011;2357;47.316;-1.348;2022-10-30T11:49:25;3.57;;;0.60;;
4686;SDS011;2357;47.316;-1.348;2022-10-30T11:51:56;1.80;;;0.50;;
4686;SDS011;2357;47.316;-1.348;2022-10-30T11:54:22;1.63;;;0.63;;
4686;SDS011;2357;47.316;-1.348;2022-10-30T11:56:48;2.80;;;0.60;;
4686;SDS011;2357;47.316;-1.348;2022-10-30T11:59:18;2.20;;;0.70;;
4686;SDS011;2357;47.316;-1.348;2022-10-30T12:01:56;1.40;;;0.70;;
4686;SDS011;2357;47.316;-1.348;2022-10-30T12:04:24;3.43;;;0.60;;
4686;SDS011;2357;47.316;-1.348;2022-10-30T12:09:42;2.23;;;0.60;;
4686;SDS011;2357;47.316;-1.348;2022-10-30T12:12:09;0.70;;;0.70;;
4686;SDS011;2357;47.316;-1.348;2022-10-30T12:14:44;8.97;;;0.80;;
4686;SDS011;2357;47.316;-1.348;2022-10-30T12:17:09;4.37;;;0.53;;
4686;SDS011;2357;47.316;-1.348;2022-10-30T12:19:43;2.40;;;0.50;;
4686;SDS011;2357;47.316;-1.348;2022-10-30T12:25:23;2.20;;;0.50;;
4686;SDS011;2357;47.316;-1.348;2022-10-30T12:30:48;0.53;;;0.53;;
4686;SDS011;2357;47.316;-1.348;2022-10-30T12:33:28;1.43;;;0.70;;
4686;SDS011;2357;47.316;-1.348;2022-10-30T12:36:05;5.70;;;1.13;;
4686;SDS011;2357;47.316;-1.348;2022-10-30T12:38:44;1.77;;;0.67;;
4686;SDS011;2357;47.316;-1.348;2022-10-30T12:41:21;11.27;;;1.67;;
4686;SDS011;2357;47.316;-1.348;2022-10-30T12:51:48;1.38;;;0.60;;
4686;SDS011;2357;47.316;-1.348;2022-10-30T12:54:21;1.80;;;0.83;;
4686;SDS011;2357;47.316;-1.348;2022-10-30T12:57:04;0.40;;;0.40;;
4686;SDS011;2357;47.316;-1.348;2022-10-30T13:02:12;3.37;;;0.90;;
4686;SDS011;2357;47.316;-1.348;2022-10-30T13:05:36;4.97;;;0.60;;
4686;SDS011;2357;47.316;-1.348;2022-10-30T13:08:05;0.50;;;0.50;;
4686;SDS011;2357;47.316;-1.348;2022-10-30T13:10:42;2.00;;;0.57;;
4686;SDS011;2357;47.316;-1.348;2022-10-30T13:13:20;0.60;;;0.60;;
4686;SDS011;2357;47.316;-1.348;2022-10-30T13:15:54;2.73;;;0.90;;
4686;SDS011;2357;47.316;-1.348;2022-10-30T13:18:23;2.13;;;1.00;;
4686;SDS011;2357;47.316;-1.348;2022-10-30T13:23:57;0.80;;;0.60;;
4686;SDS011;2357;47.316;-1.348;2022-10-30T13:27:01;2.50;;;0.50;;
4686;SDS011;2357;47.316;-1.348;2022-10-30T13:51:59;1.70;;;0.60;;
4686;SDS011;2357;47.316;-1.348;2022-10-30T14:00:12;5.73;;;0.50;;
4686;SDS011;2357;47.316;-1.348;2022-10-30T14:10:47;3.70;;;1.43;;
4686;SDS011;2357;47.316;-1.348;2022-10-30T14:13:27;0.80;;;0.70;;
4686;SDS011;2357;47.316;-1.348;2022-10-30T14:16:10;2.00;;;1.00;;
4686;SDS011;2357;47.316;-1.348;2022-10-30T14:32:40;2.93;;;0.70;;
4686;SDS011;2357;47.316;-1.348;2022-10-30T14:39:47;2.00;;;0.70;;
4686;SDS011;2357;47.316;-1.348;2022-10-30T14:42:20;1.27;;;0.73;;
4686;SDS011;2357;47.316;-1.348;2022-10-30T14:44:56;3.23;;;0.50;;
4686;SDS011;2357;47.316;-1.348;2022-10-30T14:49:59;8.60;;;1.33;;
4686;SDS011;2357;47.316;-1.348;2022-10-30T14:52:48;6.90;;;0.60;;
4686;SDS011;2357;47.316;-1.348;2022-10-30T14:58:21;2.83;;;0.70;;
4686;SDS011;2357;47.316;-1.348;2022-10-30T15:01:12;6.13;;;0.70;;
4686;SDS011;2357;47.316;-1.348;2022-10-30T15:04:05;4.30;;;0.67;;
4686;SDS011;2357;47.316;-1.348;2022-10-30T15:09:24;1.43;;;0.50;;
4686;SDS011;2357;47.316;-1.348;2022-10-30T15:14:41;4.70;;;0.70;;
4686;SDS011;2357;47.316;-1.348;2022-10-30T15:17:25;5.20;;;0.63;;
4686;SDS011;2357;47.316;-1.348;2022-10-30T15:19:54;4.57;;;0.80;;
4686;SDS011;2357;47.316;-1.348;2022-10-30T15:22:22;1.37;;;0.50;;
4686;SDS011;2357;47.316;-1.348;2022-10-30T15:24:50;0.70;;;0.70;;
4686;SDS011;2357;47.316;-1.348;2022-10-30T15:27:16;7.37;;;0.70;;
4686;SDS011;2357;47.316;-1.348;2022-10-30T15:29:45;6.20;;;1.27;;
4686;SDS011;2357;47.316;-1.348;2022-10-30T15:32:17;2.10;;;0.70;;
4686;SDS011;2357;47.316;-1.348;2022-10-30T15:35:19;1.80;;;0.60;;
4686;SDS011;2357;47.316;-1.348;2022-10-30T15:40:40;4.83;;;0.80;;
4686;SDS011;2357;47.316;-1.348;2022-10-30T15:43:06;1.23;;;0.70;;
4686;SDS011;2357;47.316;-1.348;2022-10-30T15:45:38;1.60;;;0.60;;
4686;SDS011;2357;47.316;-1.348;2022-10-30T15:50:44;1.43;;;0.50;;
4686;SDS011;2357;47.316;-1.348;2022-10-30T15:53:19;6.40;;;0.70;;
4686;SDS011;2357;47.316;-1.348;2022-10-30T15:55:48;1.77;;;0.63;;
4686;SDS011;2357;47.316;-1.348;2022-10-30T15:58:15;2.63;;;0.60;;
4686;SDS011;2357;47.316;-1.348;2022-10-30T16:00:53;1.13;;;0.50;;
4686;SDS011;2357;47.316;-1.348;2022-10-30T16:03:20;3.60;;;0.60;;
4686;SDS011;2357;47.316;-1.348;2022-10-30T16:05:46;10.30;;;0.63;;
4686;SDS011;2357;47.316;-1.348;2022-10-30T16:08:16;4.10;;;1.03;;
4686;SDS011;2357;47.316;-1.348;2022-10-30T16:10:47;5.00;;;1.10;;
4686;SDS011;2357;47.316;-1.348;2022-10-30T16:13:16;3.73;;;0.80;;
4686;SDS011;2357;47.316;-1.348;2022-10-30T16:15:46;11.10;;;0.90;;
4686;SDS011;2357;47.316;-1.348;2022-10-30T16:18:23;3.73;;;0.90;;
4686;SDS011;2357;47.316;-1.348;2022-10-30T16:21:06;4.80;;;1.23;;
4686;SDS011;2357;47.316;-1.348;2022-10-30T16:23:40;2.10;;;0.90;;
4686;SDS011;2357;47.316;-1.348;2022-10-30T16:28:50;4.27;;;0.60;;
4686;SDS011;2357;47.316;-1.348;2022-10-30T16:31:16;1.57;;;0.60;;
4686;SDS011;2357;47.316;-1.348;2022-10-30T16:33:44;1.37;;;0.70;;
4686;SDS011;2357;47.316;-1.348;2022-10-30T16:36:11;1.90;;;0.80;;
4686;SDS011;2357;47.316;-1.348;2022-10-30T16:38:41;2.97;;;1.17;;
4686;SDS011;2357;47.316;-1.348;2022-10-30T16:41:10;2.20;;;1.13;;
4686;SDS011;2357;47.316;-1.348;2022-10-30T16:43:37;6.10;;;1.10;;
4686;SDS011;2357;47.316;-1.348;2022-10-30T16:48:41;1.33;;;0.80;;
4686;SDS011;2357;47.316;-1.348;2022-10-30T16:51:22;2.17;;;0.80;;
4686;SDS011;2357;47.316;-1.348;2022-10-30T16:53:48;5.00;;;0.80;;
4686;SDS011;2357;47.316;-1.348;2022-10-30T16:56:20;1.70;;;1.10;;
4686;SDS011;2357;47.316;-1.348;2022-10-30T16:58:48;2.30;;;0.60;;
4686;SDS011;2357;47.316;-1.348;2022-10-30T17:01:15;8.53;;;0.87;;
4686;SDS011;2357;47.316;-1.348;2022-10-30T17:03:41;4.40;;;0.70;;
4686;SDS011;2357;47.316;-1.348;2022-10-30T17:06:41;3.33;;;0.73;;
4686;SDS011;2357;47.316;-1.348;2022-10-30T17:09:09;4.30;;;0.93;;
4686;SDS011;2357;47.316;-1.348;2022-10-30T17:11:46;6.37;;;0.93;;
4686;SDS011;2357;47.316;-1.348;2022-10-30T17:14:40;3.90;;;0.90;;
4686;SDS011;2357;47.316;-1.348;2022-10-30T17:17:33;4.43;;;0.67;;
4686;SDS011;2357;47.316;-1.348;2022-10-30T17:22:38;2.50;;;1.00;;
4686;SDS011;2357;47.316;-1.348;2022-10-30T17:28:02;3.38;;;0.90;;
4686;SDS011;2357;47.316;-1.348;2022-10-30T17:30:35;5.60;;;1.30;;
4686;SDS011;2357;47.316;-1.348;2022-10-30T17:36:10;7.40;;;1.37;;
4686;SDS011;2357;47.316;-1.348;2022-10-30T17:38:35;3.43;;;0.60;;
4686;SDS011;2357;47.316;-1.348;2022-10-30T17:41:02;1.92;;;1.00;;
4686;SDS011;2357;47.316;-1.348;2022-10-30T17:43:46;1.80;;;0.70;;
4686;SDS011;2357;47.316;-1.348;2022-10-30T17:46:19;2.60;;;0.97;;
4686;SDS011;2357;47.316;-1.348;2022-10-30T17:48:45;3.45;;;0.80;;
4686;SDS011;2357;47.316;-1.348;2022-10-30T17:51:13;4.33;;;1.07;;
4686;SDS011;2357;47.316;-1.348;2022-10-30T17:53:40;1.10;;;1.00;;
4686;SDS011;2357;47.316;-1.348;2022-10-30T17:56:10;3.57;;;1.00;;
4686;SDS011;2357;47.316;-1.348;2022-10-30T17:58:36;11.00;;;1.50;;
4686;SDS011;2357;47.316;-1.348;2022-10-30T18:01:02;2.97;;;0.80;;
4686;SDS011;2357;47.316;-1.348;2022-10-30T18:03:28;3.03;;;0.70;;
4686;SDS011;2357;47.316;-1.348;2022-10-30T18:05:53;10.70;;;1.73;;
4686;SDS011;2357;47.316;-1.348;2022-10-30T18:08:19;4.20;;;0.90;;
4686;SDS011;2357;47.316;-1.348;2022-10-30T18:10:45;1.33;;;0.80;;
4686;SDS011;2357;47.316;-1.348;2022-10-30T18:13:11;9.73;;;0.90;;
4686;SDS011;2357;47.316;-1.348;2022-10-30T18:15:39;4.43;;;0.80;;